sensor_id;sensor_type;location;lat;lon;timestamp;pressure;altitude;pressure_sealevel;temperature;humidity
31681;BME280;18281;51.364;9.566;2023-02-14T00:00:38;102047.34;;;-1.39;100.00
31681;BME280;18281;51.364;9.566;2023-02-14T00:03:03;102056.25;;;-1.26;100.00
31681;BME280;18281;51.364;9.566;2023-02-14T00:05:29;102045.91;;;-1.28;100.00
31681;BME280;18281;51.364;9.566;2023-02-14T00:07:54;102053.88;;;-1.83;100.00
31681;BME280;18281;51.364;9.566;2023-02-14T00:10:19;102057.13;;;-1.88;100.00
31681;BME280;18281;51.364;9.566;2023-02-14T00:12:45;102056.19;;;-1.92;100.00
31681;BME280;18281;51.364;9.566;2023-02-14T00:15:10;102057.53;;;-2.03;100.00
31681;BME280;18281;51.364;9.566;2023-02-14T00:17:52;102056.03;;;-1.96;100.00
31681;BME280;18281;51.364;9.566;2023-02-14T00:20:19;102060.66;;;-1.85;100.00
31681;BME280;18281;51.364;9.566;2023-02-14T00:22:45;102054.84;;;-1.77;100.00
31681;BME280;18281;51.364;9.566;2023-02-14T00:25:10;102061.50;;;-1.55;100.00
31681;BME280;18281;51.364;9.566;2023-02-14T00:27:36;102054.84;;;-1.47;100.00
31681;BME280;18281;51.364;9.566;2023-02-14T00:30:02;102059.38;;;-1.38;100.00
31681;BME280;18281;51.364;9.566;2023-02-14T00:32:30;102045.50;;;-1.43;100.00
31681;BME280;18281;51.364;9.566;2023-02-14T00:34:56;102061.91;;;-1.72;100.00
31681;BME280;18281;51.364;9.566;2023-02-14T00:37:21;102062.53;;;-1.79;100.00
31681;BME280;18281;51.364;9.566;2023-02-14T00:39:47;102054.69;;;-1.84;100.00
31681;BME280;18281;51.364;9.566;2023-02-14T00:42:13;102060.69;;;-1.83;100.00
31681;BME280;18281;51.364;9.566;2023-02-14T00:44:39;102054.25;;;-1.69;100.00
31681;BME280;18281;51.364;9.566;2023-02-14T00:47:04;102057.69;;;-1.68;100.00
31681;BME280;18281;51.364;9.566;2023-02-14T00:49:30;102061.84;;;-1.73;100.00
31681;BME280;18281;51.364;9.566;2023-02-14T00:51:55;102057.38;;;-1.49;100.00
31681;BME280;18281;51.364;9.566;2023-02-14T00:54:20;102061.09;;;-1.37;100.00
31681;BME280;18281;51.364;9.566;2023-02-14T00:56:46;102065.28;;;-1.42;100.00
31681;BME280;18281;51.364;9.566;2023-02-14T00:59:11;102061.09;;;-1.37;100.00
31681;BME280;18281;51.364;9.566;2023-02-14T01:01:37;102069.06;;;-1.29;100.00
31681;BME280;18281;51.364;9.566;2023-02-14T01:04:03;102064.38;;;-1.44;100.00
31681;BME280;18281;51.364;9.566;2023-02-14T01:06:29;102074.06;;;-1.66;100.00
31681;BME280;18281;51.364;9.566;2023-02-14T01:08:54;102068.47;;;-1.82;100.00
31681;BME280;18281;51.364;9.566;2023-02-14T01:11:22;102075.19;;;-1.87;100.00
31681;BME280;18281;51.364;9.566;2023-02-14T01:13:48;102069.41;;;-1.79;100.00
31681;BME280;18281;51.364;9.566;2023-02-14T01:16:17;102074.56;;;-1.79;100.00
31681;BME280;18281;51.364;9.566;2023-02-14T01:18:43;102075.84;;;-1.94;100.00
31681;BME280;18281;51.364;9.566;2023-02-14T01:21:21;102075.66;;;-2.00;100.00
31681;BME280;18281;51.364;9.566;2023-02-14T01:23:48;102081.00;;;-1.94;100.00
31681;BME280;18281;51.364;9.566;2023-02-14T01:26:15;102075.56;;;-2.03;100.00
31681;BME280;18281;51.364;9.566;2023-02-14T01:28:41;102078.88;;;-2.07;100.00
31681;BME280;18281;51.364;9.566;2023-02-14T01:31:14;102084.03;;;-2.07;100.00
31681;BME280;18281;51.364;9.566;2023-02-14T01:33:41;102086.78;;;-2.01;100.00
31681;BME280;18281;51.364;9.566;2023-02-14T01:38:41;102085.53;;;-2.14;100.00
31681;BME280;18281;51.364;9.566;2023-02-14T01:41:07;102078.56;;;-2.18;100.00
31681;BME280;18281;51.364;9.566;2023-02-14T01:43:58;102078.72;;;-1.83;100.00
31681;BME280;18281;51.364;9.566;2023-02-14T01:46:26;102072.78;;;-1.81;100.00
31681;BME280;18281;51.364;9.566;2023-02-14T01:48:55;102071.78;;;-1.86;100.00
31681;BME280;18281;51.364;9.566;2023-02-14T01:51:21;102064.81;;;-1.90;100.00
31681;BME280;18281;51.364;9.566;2023-02-14T01:53:48;102071.75;;;-2.16;100.00
31681;BME280;18281;51.364;9.566;2023-02-14T01:56:20;102074.38;;;-2.15;100.00
31681;BME280;18281;51.364;9.566;2023-02-14T01:58:50;102059.69;;;-1.88;100.00
31681;BME280;18281;51.364;9.566;2023-02-14T02:01:18;102069.78;;;-1.96;100.00
31681;BME280;18281;51.364;9.566;2023-02-14T02:03:53;102068.09;;;-1.65;100.00
31681;BME280;18281;51.364;9.566;2023-02-14T02:06:31;102061.41;;;-1.89;100.00
31681;BME280;18281;51.364;9.566;2023-02-14T02:09:17;102066.88;;;-2.07;100.00
31681;BME280;18281;51.364;9.566;2023-02-14T02:11:45;102061.59;;;-1.83;100.00
31681;BME280;18281;51.364;9.566;2023-02-14T02:14:17;102065.50;;;-1.95;100.00
31681;BME280;18281;51.364;9.566;2023-02-14T02:17:05;102056.25;;;-1.89;100.00
31681;BME280;18281;51.364;9.566;2023-02-14T02:30:36;102057.59;;;-2.02;100.00
31681;BME280;18281;51.364;9.566;2023-02-14T02:33:32;102052.63;;;-1.95;100.00
31681;BME280;18281;51.364;9.566;2023-02-14T02:38:52;102044.44;;;-1.82;100.00
31681;BME280;18281;51.364;9.566;2023-02-14T02:46:37;102044.50;;;-2.09;100.00
31681;BME280;18281;51.364;9.566;2023-02-14T02:49:28;102036.72;;;-2.11;100.00
31681;BME280;18281;51.364;9.566;2023-02-14T02:55:18;102031.03;;;-2.01;100.00
31681;BME280;18281;51.364;9.566;2023-02-14T02:57:47;102030.16;;;-2.01;100.00
31681;BME280;18281;51.364;9.566;2023-02-14T03:00:16;102026.72;;;-2.00;100.00
31681;BME280;18281;51.364;9.566;2023-02-14T03:02:46;102029.84;;;-2.12;100.00
31681;BME280;18281;51.364;9.566;2023-02-14T03:05:33;102030.31;;;-1.95;100.00
31681;BME280;18281;51.364;9.566;2023-02-14T03:07:59;102024.50;;;-1.89;100.00
31681;BME280;18281;51.364;9.566;2023-02-14T03:10:34;102028.72;;;-1.91;100.00
31681;BME280;18281;51.364;9.566;2023-02-14T03:13:13;102018.66;;;-1.84;100.00
31681;BME280;18281;51.364;9.566;2023-02-14T03:15:56;102022.91;;;-1.84;100.00
31681;BME280;18281;51.364;9.566;2023-02-14T03:18:56;102019.28;;;-1.91;100.00
31681;BME280;18281;51.364;9.566;2023-02-14T03:22:07;102022.44;;;-2.01;100.00
31681;BME280;18281;51.364;9.566;2023-02-14T03:24:50;102020.94;;;-1.93;100.00
31681;BME280;18281;51.364;9.566;2023-02-14T03:27:27;102021.19;;;-1.85;100.00
31681;BME280;18281;51.364;9.566;2023-02-14T03:30:14;102023.44;;;-1.96;100.00
31681;BME280;18281;51.364;9.566;2023-02-14T03:32:51;102015.91;;;-1.88;100.00
31681;BME280;18281;51.364;9.566;2023-02-14T03:38:40;102022.34;;;-2.33;100.00
31681;BME280;18281;51.364;9.566;2023-02-14T03:41:11;102015.34;;;-2.08;100.00
31681;BME280;18281;51.364;9.566;2023-02-14T03:43:43;102016.19;;;-2.38;100.00
31681;BME280;18281;51.364;9.566;2023-02-14T03:46:17;102004.75;;;-2.19;100.00
31681;BME280;18281;51.364;9.566;2023-02-14T03:48:44;102007.31;;;-2.19;100.00
31681;BME280;18281;51.364;9.566;2023-02-14T03:51:13;102013.50;;;-2.12;100.00
31681;BME280;18281;51.364;9.566;2023-02-14T03:53:44;102014.09;;;-2.23;100.00
31681;BME280;18281;51.364;9.566;2023-02-14T03:56:45;101999.91;;;-2.08;100.00
31681;BME280;18281;51.364;9.566;2023-02-14T03:59:17;102005.94;;;-2.08;100.00
31681;BME280;18281;51.364;9.566;2023-02-14T04:01:49;102016.63;;;-2.52;100.00
31681;BME280;18281;51.364;9.566;2023-02-14T04:04:18;102014.94;;;-2.22;100.00
31681;BME280;18281;51.364;9.566;2023-02-14T04:06:45;102006.41;;;-2.21;100.00
31681;BME280;18281;51.364;9.566;2023-02-14T04:09:11;102016.09;;;-2.12;100.00
31681;BME280;18281;51.364;9.566;2023-02-14T04:11:36;102004.31;;;-2.04;100.00
31681;BME280;18281;51.364;9.566;2023-02-14T04:14:03;102009.34;;;-2.38;100.00
31681;BME280;18281;51.364;9.566;2023-02-14T04:16:29;102008.25;;;-2.17;100.00
31681;BME280;18281;51.364;9.566;2023-02-14T04:18:55;102007.53;;;-2.11;100.00
31681;BME280;18281;51.364;9.566;2023-02-14T04:21:39;101999.75;;;-2.15;100.00
31681;BME280;18281;51.364;9.566;2023-02-14T04:24:04;102004.22;;;-2.07;100.00
31681;BME280;18281;51.364;9.566;2023-02-14T04:26:30;102001.84;;;-2.01;100.00
31681;BME280;18281;51.364;9.566;2023-02-14T04:28:55;101995.06;;;-2.28;100.00
31681;BME280;18281;51.364;9.566;2023-02-14T04:31:20;101998.66;;;-2.23;100.00
31681;BME280;18281;51.364;9.566;2023-02-14T04:33:46;101997.94;;;-2.17;100.00
31681;BME280;18281;51.364;9.566;2023-02-14T04:36:13;101998.13;;;-2.11;100.00
31681;BME280;18281;51.364;9.566;2023-02-14T04:38:39;101989.63;;;-2.37;100.00
31681;BME280;18281;51.364;9.566;2023-02-14T04:41:04;101990.22;;;-2.46;100.00
31681;BME280;18281;51.364;9.566;2023-02-14T04:43:30;101995.38;;;-2.46;100.00
31681;BME280;18281;51.364;9.566;2023-02-14T04:45:55;101991.25;;;-2.41;100.00
31681;BME280;18281;51.364;9.566;2023-02-14T04:48:20;101993.13;;;-2.35;100.00
31681;BME280;18281;51.364;9.566;2023-02-14T04:50:51;101992.50;;;-2.28;100.00
31681;BME280;18281;51.364;9.566;2023-02-14T04:53:16;101992.50;;;-2.28;100.00
31681;BME280;18281;51.364;9.566;2023-02-14T04:55:43;101999.19;;;-2.33;100.00
31681;BME280;18281;51.364;9.566;2023-02-14T04:58:09;101993.00;;;-2.40;100.00
31681;BME280;18281;51.364;9.566;2023-02-14T05:00:34;101999.66;;;-2.46;100.00
31681;BME280;18281;51.364;9.566;2023-02-14T05:02:59;101996.53;;;-2.36;100.00
31681;BME280;18281;51.364;9.566;2023-02-14T05:05:25;102004.13;;;-2.68;100.00
31681;BME280;18281;51.364;9.566;2023-02-14T05:07:50;101990.91;;;-2.52;100.00
31681;BME280;18281;51.364;9.566;2023-02-14T05:10:16;101991.44;;;-2.62;100.00
31681;BME280;18281;51.364;9.566;2023-02-14T05:12:41;101988.66;;;-2.41;100.00
31681;BME280;18281;51.364;9.566;2023-02-14T05:15:07;101984.47;;;-2.39;100.00
31681;BME280;18281;51.364;9.566;2023-02-14T05:17:38;101990.09;;;-2.51;100.00
31681;BME280;18281;51.364;9.566;2023-02-14T05:20:04;101992.75;;;-2.47;100.00
31681;BME280;18281;51.364;9.566;2023-02-14T05:22:30;101993.69;;;-2.45;100.00
31681;BME280;18281;51.364;9.566;2023-02-14T05:24:55;101994.34;;;-2.51;100.00
31681;BME280;18281;51.364;9.566;2023-02-14T05:27:21;101989.06;;;-2.56;100.00
31681;BME280;18281;51.364;9.566;2023-02-14T05:29:46;101995.53;;;-2.41;100.00
31681;BME280;18281;51.364;9.566;2023-02-14T05:32:11;101998.44;;;-2.58;100.00
31681;BME280;18281;51.364;9.566;2023-02-14T05:34:37;101996.78;;;-2.83;100.00
31681;BME280;18281;51.364;9.566;2023-02-14T05:37:02;101998.13;;;-2.67;100.00
31681;BME280;18281;51.364;9.566;2023-02-14T05:39:28;102001.16;;;-2.80;100.00
31681;BME280;18281;51.364;9.566;2023-02-14T05:41:53;101992.03;;;-2.98;100.00
31681;BME280;18281;51.364;9.566;2023-02-14T05:44:20;101988.00;;;-2.90;100.00
31681;BME280;18281;51.364;9.566;2023-02-14T05:46:46;101994.34;;;-2.80;100.00
31681;BME280;18281;51.364;9.566;2023-02-14T05:49:11;101990.53;;;-2.91;100.00
31681;BME280;18281;51.364;9.566;2023-02-14T05:51:36;101992.41;;;-3.13;100.00
31681;BME280;18281;51.364;9.566;2023-02-14T05:54:02;101995.38;;;-3.01;100.00
31681;BME280;18281;51.364;9.566;2023-02-14T05:56:27;101998.13;;;-3.22;100.00
31681;BME280;18281;51.364;9.566;2023-02-14T05:58:53;101995.31;;;-3.02;100.00
31681;BME280;18281;51.364;9.566;2023-02-14T06:01:18;101997.94;;;-3.01;100.00
31681;BME280;18281;51.364;9.566;2023-02-14T06:03:43;102001.00;;;-3.12;100.00
31681;BME280;18281;51.364;9.566;2023-02-14T06:06:09;102001.69;;;-2.91;100.00
31681;BME280;18281;51.364;9.566;2023-02-14T06:08:34;101999.75;;;-2.98;100.00
31681;BME280;18281;51.364;9.566;2023-02-14T06:10:59;102000.28;;;-3.08;100.00
31681;BME280;18281;51.364;9.566;2023-02-14T06:13:25;102001.03;;;-2.85;100.00
31681;BME280;18281;51.364;9.566;2023-02-14T06:15:50;102002.31;;;-3.24;100.00
31681;BME280;18281;51.364;9.566;2023-02-14T06:18:15;102006.03;;;-3.16;100.00
31681;BME280;18281;51.364;9.566;2023-02-14T06:20:41;102004.31;;;-2.89;100.00
31681;BME280;18281;51.364;9.566;2023-02-14T06:23:06;102006.53;;;-2.73;100.00
31681;BME280;18281;51.364;9.566;2023-02-14T06:25:32;102005.03;;;-2.66;100.00
31681;BME280;18281;51.364;9.566;2023-02-14T06:27:58;102009.06;;;-2.74;100.00
31681;BME280;18281;51.364;9.566;2023-02-14T06:30:24;102007.06;;;-3.10;100.00
31681;BME280;18281;51.364;9.566;2023-02-14T06:32:50;102019.53;;;-3.21;100.00
31681;BME280;18281;51.364;9.566;2023-02-14T06:35:15;102021.75;;;-3.32;100.00
31681;BME280;18281;51.364;9.566;2023-02-14T06:37:40;102020.22;;;-3.01;100.00
31681;BME280;18281;51.364;9.566;2023-02-14T06:40:07;102016.06;;;-2.97;100.00
31681;BME280;18281;51.364;9.566;2023-02-14T06:42:33;102021.06;;;-3.52;100.00
31681;BME280;18281;51.364;9.566;2023-02-14T06:44:58;102029.91;;;-3.44;100.00
31681;BME280;18281;51.364;9.566;2023-02-14T06:47:26;102020.34;;;-3.48;100.00
31681;BME280;18281;51.364;9.566;2023-02-14T06:49:52;102025.78;;;-3.39;100.00
31681;BME280;18281;51.364;9.566;2023-02-14T06:52:17;102024.88;;;-3.65;100.00
31681;BME280;18281;51.364;9.566;2023-02-14T06:54:42;102016.34;;;-3.40;100.00
31681;BME280;18281;51.364;9.566;2023-02-14T06:57:08;102017.41;;;-3.33;100.00
31681;BME280;18281;51.364;9.566;2023-02-14T06:59:33;102016.78;;;-3.52;100.00
31681;BME280;18281;51.364;9.566;2023-02-14T07:01:58;102024.38;;;-3.55;100.00
31681;BME280;18281;51.364;9.566;2023-02-14T07:04:24;102020.03;;;-3.32;100.00
31681;BME280;18281;51.364;9.566;2023-02-14T07:06:49;102017.22;;;-3.39;100.00
31681;BME280;18281;51.364;9.566;2023-02-14T07:09:15;102029.19;;;-3.64;100.00
31681;BME280;18281;51.364;9.566;2023-02-14T07:11:42;102033.50;;;-3.39;100.00
31681;BME280;18281;51.364;9.566;2023-02-14T07:14:07;102034.31;;;-3.64;100.00
31681;BME280;18281;51.364;9.566;2023-02-14T07:16:33;102027.66;;;-3.59;100.00
31681;BME280;18281;51.364;9.566;2023-02-14T07:18:58;102038.84;;;-3.81;100.00
31681;BME280;18281;51.364;9.566;2023-02-14T07:21:24;102031.38;;;-3.51;100.00
31681;BME280;18281;51.364;9.566;2023-02-14T07:23:49;102034.66;;;-3.79;100.00
31681;BME280;18281;51.364;9.566;2023-02-14T07:26:15;102030.19;;;-3.60;100.00
31681;BME280;18281;51.364;9.566;2023-02-14T07:28:46;102036.13;;;-3.86;100.00
31681;BME280;18281;51.364;9.566;2023-02-14T07:31:16;102040.50;;;-3.59;100.00
31681;BME280;18281;51.364;9.566;2023-02-14T07:33:42;102038.97;;;-3.78;100.00
31681;BME280;18281;51.364;9.566;2023-02-14T07:36:08;102034.59;;;-3.80;100.00
31681;BME280;18281;51.364;9.566;2023-02-14T07:38:34;102036.13;;;-3.86;100.00
31681;BME280;18281;51.364;9.566;2023-02-14T07:41:00;102036.56;;;-3.73;100.00
31681;BME280;18281;51.364;9.566;2023-02-14T07:43:26;102026.78;;;-3.35;100.00
31681;BME280;18281;51.364;9.566;2023-02-14T07:45:51;102025.53;;;-3.46;100.00
31681;BME280;18281;51.364;9.566;2023-02-14T07:48:17;102028.09;;;-3.46;100.00
31681;BME280;18281;51.364;9.566;2023-02-14T07:50:42;102025.72;;;-3.16;100.00
31681;BME280;18281;51.364;9.566;2023-02-14T07:53:08;102022.47;;;-3.10;100.00
31681;BME280;18281;51.364;9.566;2023-02-14T07:55:33;102014.09;;;-3.30;100.00
31681;BME280;18281;51.364;9.566;2023-02-14T07:57:59;102016.41;;;-3.12;100.00
31681;BME280;18281;51.364;9.566;2023-02-14T08:00:25;102018.25;;;-1.34;100.00
31681;BME280;18281;51.364;9.566;2023-02-14T08:02:51;102024.81;;;-0.02;100.00
31681;BME280;18281;51.364;9.566;2023-02-14T08:05:16;102019.88;;;0.55;100.00
31681;BME280;18281;51.364;9.566;2023-02-14T08:07:42;102016.19;;;0.90;100.00
31681;BME280;18281;51.364;9.566;2023-02-14T08:10:08;102005.59;;;0.77;100.00
31681;BME280;18281;51.364;9.566;2023-02-14T08:12:34;102007.56;;;0.42;100.00
31681;BME280;18281;51.364;9.566;2023-02-14T08:15:18;102005.94;;;-0.39;100.00
31681;BME280;18281;51.364;9.566;2023-02-14T08:18:01;102006.88;;;-1.08;100.00
31681;BME280;18281;51.364;9.566;2023-02-14T08:20:27;102002.22;;;-1.87;100.00
31681;BME280;18281;51.364;9.566;2023-02-14T08:22:52;102008.63;;;-1.73;100.00
31681;BME280;18281;51.364;9.566;2023-02-14T08:25:17;102002.84;;;-1.96;100.00
31681;BME280;18281;51.364;9.566;2023-02-14T08:27:43;101998.97;;;-1.80;100.00
31681;BME280;18281;51.364;9.566;2023-02-14T08:30:08;101996.75;;;-2.00;100.00
31681;BME280;18281;51.364;9.566;2023-02-14T08:32:34;102005.72;;;-1.85;100.00
31681;BME280;18281;51.364;9.566;2023-02-14T08:34:59;101995.47;;;-1.84;100.00
31681;BME280;18281;51.364;9.566;2023-02-14T08:37:24;101998.19;;;-1.77;100.00
31681;BME280;18281;51.364;9.566;2023-02-14T08:39:49;102007.88;;;-1.99;100.00
31681;BME280;18281;51.364;9.566;2023-02-14T08:42:15;102005.47;;;-1.94;100.00
31681;BME280;18281;51.364;9.566;2023-02-14T08:44:40;102010.25;;;-2.07;100.00
31681;BME280;18281;51.364;9.566;2023-02-14T08:47:05;102005.19;;;-2.04;100.00
31681;BME280;18281;51.364;9.566;2023-02-14T08:49:31;102005.25;;;-2.31;100.00
31681;BME280;18281;51.364;9.566;2023-02-14T08:51:56;101999.75;;;-2.15;100.00
31681;BME280;18281;51.364;9.566;2023-02-14T08:54:21;101994.28;;;-1.95;100.00
31681;BME280;18281;51.364;9.566;2023-02-14T08:56:47;101995.06;;;-1.98;100.00
31681;BME280;18281;51.364;9.566;2023-02-14T08:59:12;101989.56;;;-1.79;100.00
31681;BME280;18281;51.364;9.566;2023-02-14T09:01:38;101990.97;;;-1.91;100.00
31681;BME280;18281;51.364;9.566;2023-02-14T09:04:03;101987.41;;;-1.96;100.00
31681;BME280;18281;51.364;9.566;2023-02-14T09:06:29;101987.41;;;-1.96;100.00
31681;BME280;18281;51.364;9.566;2023-02-14T09:08:54;101981.50;;;-1.92;100.00
31681;BME280;18281;51.364;9.566;2023-02-14T09:11:21;101983.81;;;-2.01;100.00
31681;BME280;18281;51.364;9.566;2023-02-14T09:13:49;101981.84;;;-1.79;100.00
31681;BME280;18281;51.364;9.566;2023-02-14T09:16:16;101982.34;;;-1.93;100.00
31681;BME280;18281;51.364;9.566;2023-02-14T09:18:42;101981.78;;;-1.83;100.00
31681;BME280;18281;51.364;9.566;2023-02-14T09:21:10;101979.09;;;-1.86;100.00
31681;BME280;18281;51.364;9.566;2023-02-14T09:23:36;101978.44;;;-1.78;100.00
31681;BME280;18281;51.364;9.566;2023-02-14T09:26:04;101974.84;;;-1.85;100.00
31681;BME280;18281;51.364;9.566;2023-02-14T09:28:30;101978.16;;;-1.89;100.00
31681;BME280;18281;51.364;9.566;2023-02-14T09:30:56;101971.00;;;-1.68;100.00
31681;BME280;18281;51.364;9.566;2023-02-14T09:33:21;101975.22;;;-1.70;100.00
31681;BME280;18281;51.364;9.566;2023-02-14T09:35:47;101973.91;;;-1.55;100.00
31681;BME280;18281;51.364;9.566;2023-02-14T09:38:13;101968.84;;;-1.51;100.00
31681;BME280;18281;51.364;9.566;2023-02-14T09:40:42;101967.97;;;-1.53;100.00
31681;BME280;18281;51.364;9.566;2023-02-14T09:43:21;101971.50;;;-1.81;100.00
31681;BME280;18281;51.364;9.566;2023-02-14T09:45:52;101975.91;;;-1.45;100.00
31681;BME280;18281;51.364;9.566;2023-02-14T09:48:29;101961.63;;;-1.31;100.00
31681;BME280;18281;51.364;9.566;2023-02-14T09:51:01;101966.09;;;-1.25;100.00
31681;BME280;18281;51.364;9.566;2023-02-14T09:53:31;101964.13;;;-1.35;100.00
31681;BME280;18281;51.364;9.566;2023-02-14T10:02:08;101958.66;;;-1.12;100.00
31681;BME280;18281;51.364;9.566;2023-02-14T10:04:39;101955.06;;;-1.19;100.00
31681;BME280;18281;51.364;9.566;2023-02-14T10:07:24;101948.31;;;-0.77;100.00
31681;BME280;18281;51.364;9.566;2023-02-14T10:12:28;101951.75;;;-0.77;100.00
31681;BME280;18281;51.364;9.566;2023-02-14T10:14:59;101950.22;;;-0.69;100.00
31681;BME280;18281;51.364;9.566;2023-02-14T10:17:47;101949.56;;;-0.58;100.00
31681;BME280;18281;51.364;9.566;2023-02-14T10:20:21;101943.28;;;-0.30;100.00
31681;BME280;18281;51.364;9.566;2023-02-14T10:23:02;101951.34;;;-0.16;100.00
31681;BME280;18281;51.364;9.566;2023-02-14T10:25:35;101948.78;;;-0.15;100.00
31681;BME280;18281;51.364;9.566;2023-02-14T10:28:04;101934.34;;;-0.03;100.00
31681;BME280;18281;51.364;9.566;2023-02-14T10:30:38;101944.78;;;0.01;100.00
31681;BME280;18281;51.364;9.566;2023-02-14T10:33:27;101932.09;;;0.12;100.00
31681;BME280;18281;51.364;9.566;2023-02-14T10:44:24;101924.63;;;0.28;100.00
31681;BME280;18281;51.364;9.566;2023-02-14T10:47:21;101920.50;;;0.37;100.00
31681;BME280;18281;51.364;9.566;2023-02-14T10:49:55;101921.97;;;0.25;100.00
31681;BME280;18281;51.364;9.566;2023-02-14T10:54:58;101911.00;;;0.90;100.00
31681;BME280;18281;51.364;9.566;2023-02-14T10:57:25;101902.47;;;0.96;100.00
31681;BME280;18281;51.364;9.566;2023-02-14T11:00:34;101904.34;;;1.04;100.00
31681;BME280;18281;51.364;9.566;2023-02-14T11:03:04;101906.38;;;1.26;100.00
31681;BME280;18281;51.364;9.566;2023-02-14T11:05:35;101898.81;;;1.43;100.00
31681;BME280;18281;51.364;9.566;2023-02-14T11:10:37;101904.66;;;1.95;100.00
31681;BME280;18281;51.364;9.566;2023-02-14T11:13:26;101889.97;;;1.99;100.00
31681;BME280;18281;51.364;9.566;2023-02-14T11:15:52;101892.44;;;1.85;100.00
31681;BME280;18281;51.364;9.566;2023-02-14T11:18:23;101886.31;;;1.78;100.00
31681;BME280;18281;51.364;9.566;2023-02-14T11:21:11;101881.44;;;2.06;100.00
31681;BME280;18281;51.364;9.566;2023-02-14T11:23:39;101883.34;;;2.27;100.00
31681;BME280;18281;51.364;9.566;2023-02-14T11:26:22;101886.25;;;2.60;100.00
31681;BME280;18281;51.364;9.566;2023-02-14T11:28:57;101876.81;;;2.71;100.00
31681;BME280;18281;51.364;9.566;2023-02-14T11:31:25;101871.66;;;2.77;100.00
31681;BME280;18281;51.364;9.566;2023-02-14T11:33:51;101864.09;;;3.13;100.00
31681;BME280;18281;51.364;9.566;2023-02-14T11:36:18;101857.19;;;3.21;100.00
31681;BME280;18281;51.364;9.566;2023-02-14T11:38:44;101854.59;;;3.13;100.00
31681;BME280;18281;51.364;9.566;2023-02-14T11:41:18;101861.84;;;4.32;100.00
31681;BME280;18281;51.364;9.566;2023-02-14T11:43:44;101852.28;;;4.85;100.00
31681;BME280;18281;51.364;9.566;2023-02-14T11:46:16;101848.72;;;5.15;100.00
31681;BME280;18281;51.364;9.566;2023-02-14T11:49:04;101839.97;;;5.44;100.00
31681;BME280;18281;51.364;9.566;2023-02-14T11:51:34;101831.31;;;5.28;100.00
31681;BME280;18281;51.364;9.566;2023-02-14T11:54:01;101821.84;;;5.04;100.00
31681;BME280;18281;51.364;9.566;2023-02-14T11:57:11;101808.03;;;4.93;100.00
31681;BME280;18281;51.364;9.566;2023-02-14T11:59:58;101808.00;;;4.94;100.00
31681;BME280;18281;51.364;9.566;2023-02-14T12:02:30;101808.88;;;4.99;100.00
31681;BME280;18281;51.364;9.566;2023-02-14T12:05:03;101803.63;;;5.04;100.00
31681;BME280;18281;51.364;9.566;2023-02-14T12:07:35;101801.81;;;5.24;100.00
31681;BME280;18281;51.364;9.566;2023-02-14T12:10:16;101800.94;;;5.32;100.00
31681;BME280;18281;51.364;9.566;2023-02-14T12:13:00;101785.28;;;5.39;100.00
31681;BME280;18281;51.364;9.566;2023-02-14T12:15:29;101785.19;;;5.60;100.00
31681;BME280;18281;51.364;9.566;2023-02-14T12:24:24;101777.97;;;5.94;100.00
31681;BME280;18281;51.364;9.566;2023-02-14T12:27:18;101770.97;;;6.01;100.00
31681;BME280;18281;51.364;9.566;2023-02-14T12:29:53;101772.69;;;6.03;100.00
31681;BME280;18281;51.364;9.566;2023-02-14T12:32:25;101768.25;;;6.15;100.00
31681;BME280;18281;51.364;9.566;2023-02-14T12:35:26;101764.78;;;6.16;100.00
31681;BME280;18281;51.364;9.566;2023-02-14T12:40:35;101757.44;;;6.55;100.00
31681;BME280;18281;51.364;9.566;2023-02-14T12:46:09;101747.78;;;6.62;100.00
31681;BME280;18281;51.364;9.566;2023-02-14T12:51:33;101743.16;;;6.84;100.00
31681;BME280;18281;51.364;9.566;2023-02-14T13:08:53;101714.09;;;7.16;100.00
31681;BME280;18281;51.364;9.566;2023-02-14T13:14:24;101708.75;;;7.22;100.00
31681;BME280;18281;51.364;9.566;2023-02-14T13:16:59;101699.91;;;7.33;100.00
31681;BME280;18281;51.364;9.566;2023-02-14T13:22:03;101693.69;;;7.40;100.00
31681;BME280;18281;51.364;9.566;2023-02-14T13:24:38;101691.06;;;7.40;100.00
31681;BME280;18281;51.364;9.566;2023-02-14T13:27:06;101691.03;;;7.43;100.00
31681;BME280;18281;51.364;9.566;2023-02-14T13:29:42;101689.94;;;7.58;100.00
31681;BME280;18281;51.364;9.566;2023-02-14T13:32:12;101688.25;;;7.54;100.00
31681;BME280;18281;51.364;9.566;2023-02-14T13:34:46;101688.19;;;7.57;100.00
31681;BME280;18281;51.364;9.566;2023-02-14T13:37:16;101685.59;;;7.57;100.00
31681;BME280;18281;51.364;9.566;2023-02-14T13:40:03;101677.78;;;7.55;100.00
31681;BME280;18281;51.364;9.566;2023-02-14T13:48:18;101671.47;;;7.69;100.00
31681;BME280;18281;51.364;9.566;2023-02-14T13:50:55;101668.84;;;7.69;100.00
31681;BME280;18281;51.364;9.566;2023-02-14T13:55:54;101666.25;;;7.66;100.00
31681;BME280;18281;51.364;9.566;2023-02-14T13:58:20;101672.47;;;7.60;100.00
31681;BME280;18281;51.364;9.566;2023-02-14T14:00:50;101670.84;;;7.53;100.00
31681;BME280;18281;51.364;9.566;2023-02-14T14:10:57;101661.38;;;8.44;100.00
31681;BME280;18281;51.364;9.566;2023-02-14T14:21:26;101645.72;;;7.96;100.00
31681;BME280;18281;51.364;9.566;2023-02-14T14:24:23;101644.19;;;7.84;100.00
31681;BME280;18281;51.364;9.566;2023-02-14T14:27:02;101642.50;;;7.80;100.00
31681;BME280;18281;51.364;9.566;2023-02-14T14:29:37;101640.88;;;7.72;100.00
31681;BME280;18281;51.364;9.566;2023-02-14T14:34:50;101647.19;;;7.59;100.00
31681;BME280;18281;51.364;9.566;2023-02-14T14:37:21;101644.03;;;7.40;100.00
31681;BME280;18281;51.364;9.566;2023-02-14T14:39:54;101632.03;;;7.30;100.00
31681;BME280;18281;51.364;9.566;2023-02-14T14:42:22;101632.34;;;7.10;100.00
31681;BME280;18281;51.364;9.566;2023-02-14T14:45:04;101636.91;;;6.90;100.00
31681;BME280;18281;51.364;9.566;2023-02-14T14:47:39;101636.78;;;7.03;100.00
31681;BME280;18281;51.364;9.566;2023-02-14T14:50:08;101629.72;;;7.10;100.00